Terminal Aerodrome Forecast
Issued by NWS

Home | Current Version | Previous Version | Graphics & Text | Print | Product List | Glossary On
Versions: 1 2 3 4 5 6 7 8 9 10 11 12 13 14 15 16 17
000
FTUS43 KLSX 282300
TAFSUS
TAF
KSUS 282320Z 2900/2924 33012KT P6SM SCT040
     FM290200 VRB02KT P6SM SKC
     FM291500 30006KT P6SM SCT050=

USA.gov is the U.S. government's official web portal to all federal, state and local government web resources and services.